KIKW

Jack Barstow Airport

Midland, Michigan, USA
METAR KIKW 271155Z AUTO 00000KT 4SM BR SCT065 SCT085 SCT110 17/17 A2986 RMK AO2 P0001 60001 70047 T01650165 10165 20135
Observed Flight Rules
May-27 @ 11:55 UTC (10 minutes ago) Marginal Visual Flight Rules
Visibility Clouds Conditions
4 miles
  • Scattered at 6,500' AGL
  • Scattered at 8,500' AGL
  • Scattered at 11,000' AGL
  • Mist
Temperatures Readings Precipitation
Current 17°C / 63°F
Dewpoint 17°C / 63°F
Humidity 100%
Altimeter 29.86" Hg
Pressure 1011 hPa
Elevation 194
Current Rain 0.01
METAR KIKW 271155Z AUTO 00000KT 4SM BR SCT065 SCT085 SCT110 17/17 A2986 RMK AO2 P0001 60001 70047 T01650165 10165 20135
Observed Flight Rules
May-27 @ 11:55 UTC
(10 minutes ago)
MVFR
Clouds
  • Scattered at 6,500' AGL
  • Scattered at 8,500' AGL
  • Scattered at 11,000' AGL
Conditions
  • Mist
Temperature Dewpoint
17°C / 63°F 17°C / 63°F
Humidity Altimeter Pressure
100% 29.86" Hg 1011 hPa
Current Rain
0.01